sensor_id;sensor_type;location;lat;lon;timestamp;P1;durP1;ratioP1;P2;durP2;ratioP2
8480;SDS011;4277;51.354;6.740;2024-01-11T00:00:29;32.93;;;18.13;;
8480;SDS011;4277;51.354;6.740;2024-01-11T00:02:55;35.40;;;18.53;;
8480;SDS011;4277;51.354;6.740;2024-01-11T00:05:21;35.03;;;18.67;;
8480;SDS011;4277;51.354;6.740;2024-01-11T00:07:47;31.43;;;17.50;;
8480;SDS011;4277;51.354;6.740;2024-01-11T00:10:15;31.73;;;17.57;;
8480;SDS011;4277;51.354;6.740;2024-01-11T00:12:41;36.77;;;18.93;;
8480;SDS011;4277;51.354;6.740;2024-01-11T00:15:07;35.50;;;19.63;;
8480;SDS011;4277;51.354;6.740;2024-01-11T00:17:33;35.37;;;19.23;;
8480;SDS011;4277;51.354;6.740;2024-01-11T00:19:59;40.43;;;20.27;;
8480;SDS011;4277;51.354;6.740;2024-01-11T00:22:25;37.23;;;21.07;;
8480;SDS011;4277;51.354;6.740;2024-01-11T00:24:51;38.47;;;21.37;;
8480;SDS011;4277;51.354;6.740;2024-01-11T00:27:17;38.73;;;20.77;;
8480;SDS011;4277;51.354;6.740;2024-01-11T00:29:43;35.83;;;20.10;;
8480;SDS011;4277;51.354;6.740;2024-01-11T00:32:09;41.30;;;21.57;;
8480;SDS011;4277;51.354;6.740;2024-01-11T00:34:35;36.90;;;20.27;;
8480;SDS011;4277;51.354;6.740;2024-01-11T00:37:01;36.37;;;19.27;;
8480;SDS011;4277;51.354;6.740;2024-01-11T00:39:27;36.50;;;20.40;;
8480;SDS011;4277;51.354;6.740;2024-01-11T00:41:54;36.00;;;19.73;;
8480;SDS011;4277;51.354;6.740;2024-01-11T00:44:20;33.87;;;18.97;;
8480;SDS011;4277;51.354;6.740;2024-01-11T00:46:46;40.27;;;20.83;;
8480;SDS011;4277;51.354;6.740;2024-01-11T00:49:12;32.90;;;19.17;;
8480;SDS011;4277;51.354;6.740;2024-01-11T00:51:38;34.47;;;19.83;;
8480;SDS011;4277;51.354;6.740;2024-01-11T00:54:04;37.43;;;19.77;;
8480;SDS011;4277;51.354;6.740;2024-01-11T00:56:30;36.87;;;20.27;;
8480;SDS011;4277;51.354;6.740;2024-01-11T00:58:56;36.40;;;19.47;;
8480;SDS011;4277;51.354;6.740;2024-01-11T01:01:22;32.10;;;18.33;;
8480;SDS011;4277;51.354;6.740;2024-01-11T01:03:48;38.17;;;20.20;;
8480;SDS011;4277;51.354;6.740;2024-01-11T01:06:14;35.73;;;19.53;;
8480;SDS011;4277;51.354;6.740;2024-01-11T01:08:40;38.17;;;20.83;;
8480;SDS011;4277;51.354;6.740;2024-01-11T01:11:06;37.17;;;20.67;;
8480;SDS011;4277;51.354;6.740;2024-01-11T01:13:32;35.43;;;19.40;;
8480;SDS011;4277;51.354;6.740;2024-01-11T01:15:58;42.10;;;21.30;;
8480;SDS011;4277;51.354;6.740;2024-01-11T01:18:24;36.90;;;20.40;;
8480;SDS011;4277;51.354;6.740;2024-01-11T01:20:50;35.97;;;20.37;;
8480;SDS011;4277;51.354;6.740;2024-01-11T01:23:16;36.23;;;20.80;;
8480;SDS011;4277;51.354;6.740;2024-01-11T01:25:43;35.67;;;20.83;;
8480;SDS011;4277;51.354;6.740;2024-01-11T01:28:09;39.53;;;21.47;;
8480;SDS011;4277;51.354;6.740;2024-01-11T01:30:35;40.90;;;21.10;;
8480;SDS011;4277;51.354;6.740;2024-01-11T01:33:01;38.63;;;20.63;;
8480;SDS011;4277;51.354;6.740;2024-01-11T01:35:27;36.23;;;19.43;;
8480;SDS011;4277;51.354;6.740;2024-01-11T01:37:53;34.27;;;19.50;;
8480;SDS011;4277;51.354;6.740;2024-01-11T01:40:19;37.27;;;20.17;;
8480;SDS011;4277;51.354;6.740;2024-01-11T01:42:45;39.17;;;20.40;;
8480;SDS011;4277;51.354;6.740;2024-01-11T01:45:11;33.63;;;19.47;;
8480;SDS011;4277;51.354;6.740;2024-01-11T01:47:39;36.53;;;20.00;;
8480;SDS011;4277;51.354;6.740;2024-01-11T01:50:05;37.13;;;20.23;;
8480;SDS011;4277;51.354;6.740;2024-01-11T01:52:32;48.73;;;18.60;;
8480;SDS011;4277;51.354;6.740;2024-01-11T01:54:59;36.73;;;19.40;;
8480;SDS011;4277;51.354;6.740;2024-01-11T01:57:25;39.13;;;20.57;;
8480;SDS011;4277;51.354;6.740;2024-01-11T01:59:51;38.53;;;20.93;;
8480;SDS011;4277;51.354;6.740;2024-01-11T02:02:19;30.83;;;18.33;;
8480;SDS011;4277;51.354;6.740;2024-01-11T02:04:45;38.50;;;20.27;;
8480;SDS011;4277;51.354;6.740;2024-01-11T02:07:11;42.20;;;21.07;;
8480;SDS011;4277;51.354;6.740;2024-01-11T02:09:39;33.97;;;19.03;;
8480;SDS011;4277;51.354;6.740;2024-01-11T02:12:05;38.70;;;20.80;;
8480;SDS011;4277;51.354;6.740;2024-01-11T02:14:34;43.50;;;21.93;;
8480;SDS011;4277;51.354;6.740;2024-01-11T02:17:00;36.67;;;20.27;;
8480;SDS011;4277;51.354;6.740;2024-01-11T02:19:27;37.13;;;20.53;;
8480;SDS011;4277;51.354;6.740;2024-01-11T02:21:53;38.57;;;21.00;;
8480;SDS011;4277;51.354;6.740;2024-01-11T02:24:20;43.17;;;23.07;;
8480;SDS011;4277;51.354;6.740;2024-01-11T02:26:59;40.03;;;21.13;;
8480;SDS011;4277;51.354;6.740;2024-01-11T02:29:25;40.13;;;20.83;;
8480;SDS011;4277;51.354;6.740;2024-01-11T02:31:51;35.60;;;19.77;;
8480;SDS011;4277;51.354;6.740;2024-01-11T02:34:18;34.97;;;20.57;;
8480;SDS011;4277;51.354;6.740;2024-01-11T02:36:44;42.70;;;22.47;;
8480;SDS011;4277;51.354;6.740;2024-01-11T02:39:11;39.87;;;22.13;;
8480;SDS011;4277;51.354;6.740;2024-01-11T02:41:37;43.40;;;22.47;;
8480;SDS011;4277;51.354;6.740;2024-01-11T02:44:03;41.50;;;22.20;;
8480;SDS011;4277;51.354;6.740;2024-01-11T02:46:30;40.33;;;20.80;;
8480;SDS011;4277;51.354;6.740;2024-01-11T02:48:55;38.90;;;20.77;;
8480;SDS011;4277;51.354;6.740;2024-01-11T02:51:21;40.07;;;21.70;;
8480;SDS011;4277;51.354;6.740;2024-01-11T02:53:47;42.83;;;22.17;;
8480;SDS011;4277;51.354;6.740;2024-01-11T02:56:13;44.03;;;21.67;;
8480;SDS011;4277;51.354;6.740;2024-01-11T02:58:39;40.17;;;21.10;;
8480;SDS011;4277;51.354;6.740;2024-01-11T03:01:05;45.17;;;23.10;;
8480;SDS011;4277;51.354;6.740;2024-01-11T03:03:31;42.03;;;23.07;;
8480;SDS011;4277;51.354;6.740;2024-01-11T03:05:57;46.37;;;23.80;;
8480;SDS011;4277;51.354;6.740;2024-01-11T03:08:23;41.73;;;22.60;;
8480;SDS011;4277;51.354;6.740;2024-01-11T03:10:49;42.63;;;22.47;;
8480;SDS011;4277;51.354;6.740;2024-01-11T03:13:15;43.77;;;22.53;;
8480;SDS011;4277;51.354;6.740;2024-01-11T03:15:41;45.13;;;22.97;;
8480;SDS011;4277;51.354;6.740;2024-01-11T03:18:08;45.00;;;23.70;;
8480;SDS011;4277;51.354;6.740;2024-01-11T03:20:34;42.80;;;23.23;;
8480;SDS011;4277;51.354;6.740;2024-01-11T03:23:00;42.43;;;23.60;;
8480;SDS011;4277;51.354;6.740;2024-01-11T03:25:25;43.97;;;22.83;;
8480;SDS011;4277;51.354;6.740;2024-01-11T03:27:51;40.63;;;22.03;;
8480;SDS011;4277;51.354;6.740;2024-01-11T03:30:17;47.27;;;23.27;;
8480;SDS011;4277;51.354;6.740;2024-01-11T03:32:43;46.40;;;24.47;;
8480;SDS011;4277;51.354;6.740;2024-01-11T03:35:09;49.13;;;24.13;;
8480;SDS011;4277;51.354;6.740;2024-01-11T03:37:35;46.47;;;22.87;;
8480;SDS011;4277;51.354;6.740;2024-01-11T03:40:02;46.80;;;24.33;;
8480;SDS011;4277;51.354;6.740;2024-01-11T03:42:28;43.23;;;22.80;;
8480;SDS011;4277;51.354;6.740;2024-01-11T03:44:54;42.23;;;23.43;;
8480;SDS011;4277;51.354;6.740;2024-01-11T03:47:20;49.30;;;25.13;;
8480;SDS011;4277;51.354;6.740;2024-01-11T03:49:46;43.47;;;22.07;;
8480;SDS011;4277;51.354;6.740;2024-01-11T03:52:12;798.13;;;53.40;;
8480;SDS011;4277;51.354;6.740;2024-01-11T03:54:38;43.77;;;23.23;;
8480;SDS011;4277;51.354;6.740;2024-01-11T03:57:04;48.40;;;25.87;;
8480;SDS011;4277;51.354;6.740;2024-01-11T03:59:31;46.40;;;24.73;;
8480;SDS011;4277;51.354;6.740;2024-01-11T04:01:57;46.80;;;24.67;;
8480;SDS011;4277;51.354;6.740;2024-01-11T04:04:23;46.53;;;24.87;;
8480;SDS011;4277;51.354;6.740;2024-01-11T04:06:50;48.27;;;25.77;;
8480;SDS011;4277;51.354;6.740;2024-01-11T04:09:17;46.07;;;24.43;;
8480;SDS011;4277;51.354;6.740;2024-01-11T04:11:43;46.07;;;24.37;;
8480;SDS011;4277;51.354;6.740;2024-01-11T04:14:09;59.97;;;27.33;;
8480;SDS011;4277;51.354;6.740;2024-01-11T04:16:39;44.57;;;23.63;;
8480;SDS011;4277;51.354;6.740;2024-01-11T04:19:06;48.43;;;25.73;;
8480;SDS011;4277;51.354;6.740;2024-01-11T04:21:31;50.07;;;26.07;;
8480;SDS011;4277;51.354;6.740;2024-01-11T04:23:57;49.70;;;25.87;;
8480;SDS011;4277;51.354;6.740;2024-01-11T04:26:24;49.67;;;26.90;;
8480;SDS011;4277;51.354;6.740;2024-01-11T04:28:50;50.40;;;25.57;;
8480;SDS011;4277;51.354;6.740;2024-01-11T04:31:17;48.13;;;25.67;;
8480;SDS011;4277;51.354;6.740;2024-01-11T04:33:43;47.43;;;26.20;;
8480;SDS011;4277;51.354;6.740;2024-01-11T04:36:09;46.80;;;24.83;;
8480;SDS011;4277;51.354;6.740;2024-01-11T04:38:36;50.13;;;25.90;;
8480;SDS011;4277;51.354;6.740;2024-01-11T04:41:08;53.30;;;27.60;;
8480;SDS011;4277;51.354;6.740;2024-01-11T04:43:36;52.03;;;25.87;;
8480;SDS011;4277;51.354;6.740;2024-01-11T04:46:03;51.33;;;26.33;;
8480;SDS011;4277;51.354;6.740;2024-01-11T04:48:29;49.90;;;25.73;;
8480;SDS011;4277;51.354;6.740;2024-01-11T04:50:55;48.27;;;25.80;;
8480;SDS011;4277;51.354;6.740;2024-01-11T04:53:21;44.80;;;24.27;;
8480;SDS011;4277;51.354;6.740;2024-01-11T04:55:47;45.13;;;24.13;;
8480;SDS011;4277;51.354;6.740;2024-01-11T04:58:13;47.30;;;24.10;;
8480;SDS011;4277;51.354;6.740;2024-01-11T05:00:39;48.60;;;23.40;;
8480;SDS011;4277;51.354;6.740;2024-01-11T05:03:05;48.60;;;23.87;;
8480;SDS011;4277;51.354;6.740;2024-01-11T05:05:31;49.70;;;25.13;;
8480;SDS011;4277;51.354;6.740;2024-01-11T05:07:57;49.27;;;24.40;;
8480;SDS011;4277;51.354;6.740;2024-01-11T05:10:23;46.63;;;24.43;;
8480;SDS011;4277;51.354;6.740;2024-01-11T05:12:48;49.23;;;25.73;;
8480;SDS011;4277;51.354;6.740;2024-01-11T05:15:14;46.93;;;26.03;;
8480;SDS011;4277;51.354;6.740;2024-01-11T05:17:40;47.10;;;25.17;;
8480;SDS011;4277;51.354;6.740;2024-01-11T05:20:07;46.67;;;23.90;;
8480;SDS011;4277;51.354;6.740;2024-01-11T05:22:33;44.57;;;23.53;;
8480;SDS011;4277;51.354;6.740;2024-01-11T05:24:59;43.20;;;23.00;;
8480;SDS011;4277;51.354;6.740;2024-01-11T05:27:25;50.03;;;24.03;;
8480;SDS011;4277;51.354;6.740;2024-01-11T05:29:51;47.57;;;24.17;;
8480;SDS011;4277;51.354;6.740;2024-01-11T05:32:17;45.90;;;24.33;;
8480;SDS011;4277;51.354;6.740;2024-01-11T05:34:43;47.90;;;23.63;;
8480;SDS011;4277;51.354;6.740;2024-01-11T05:37:09;48.33;;;23.33;;
8480;SDS011;4277;51.354;6.740;2024-01-11T05:39:36;45.27;;;23.87;;
8480;SDS011;4277;51.354;6.740;2024-01-11T05:42:02;45.20;;;23.47;;
8480;SDS011;4277;51.354;6.740;2024-01-11T05:44:28;47.43;;;24.00;;
8480;SDS011;4277;51.354;6.740;2024-01-11T05:46:54;50.27;;;25.80;;
8480;SDS011;4277;51.354;6.740;2024-01-11T05:49:20;50.77;;;25.77;;
8480;SDS011;4277;51.354;6.740;2024-01-11T05:51:46;49.00;;;25.90;;
8480;SDS011;4277;51.354;6.740;2024-01-11T05:54:12;47.60;;;24.17;;
8480;SDS011;4277;51.354;6.740;2024-01-11T05:56:38;48.73;;;25.37;;
8480;SDS011;4277;51.354;6.740;2024-01-11T05:59:04;48.23;;;24.30;;
8480;SDS011;4277;51.354;6.740;2024-01-11T06:01:30;51.50;;;27.53;;
8480;SDS011;4277;51.354;6.740;2024-01-11T06:03:57;47.70;;;25.20;;
8480;SDS011;4277;51.354;6.740;2024-01-11T06:06:23;48.17;;;24.70;;
8480;SDS011;4277;51.354;6.740;2024-01-11T06:08:49;50.27;;;26.30;;
8480;SDS011;4277;51.354;6.740;2024-01-11T06:11:15;44.77;;;24.07;;
8480;SDS011;4277;51.354;6.740;2024-01-11T06:13:43;48.00;;;24.57;;
8480;SDS011;4277;51.354;6.740;2024-01-11T06:16:09;47.73;;;25.63;;
8480;SDS011;4277;51.354;6.740;2024-01-11T06:18:35;48.33;;;24.73;;
8480;SDS011;4277;51.354;6.740;2024-01-11T06:21:01;46.53;;;25.40;;
8480;SDS011;4277;51.354;6.740;2024-01-11T06:23:27;48.27;;;25.03;;
8480;SDS011;4277;51.354;6.740;2024-01-11T06:25:53;52.87;;;26.30;;
8480;SDS011;4277;51.354;6.740;2024-01-11T06:28:19;48.57;;;25.67;;
8480;SDS011;4277;51.354;6.740;2024-01-11T06:30:45;50.57;;;25.93;;
8480;SDS011;4277;51.354;6.740;2024-01-11T06:33:12;132.30;;;52.83;;
8480;SDS011;4277;51.354;6.740;2024-01-11T06:35:38;102.07;;;43.67;;
8480;SDS011;4277;51.354;6.740;2024-01-11T06:38:04;84.40;;;37.97;;
8480;SDS011;4277;51.354;6.740;2024-01-11T06:40:31;80.00;;;36.93;;
8480;SDS011;4277;51.354;6.740;2024-01-11T06:42:57;70.03;;;33.57;;
8480;SDS011;4277;51.354;6.740;2024-01-11T06:45:23;59.33;;;29.63;;
8480;SDS011;4277;51.354;6.740;2024-01-11T06:47:49;55.40;;;26.70;;
8480;SDS011;4277;51.354;6.740;2024-01-11T06:50:15;50.07;;;26.17;;
8480;SDS011;4277;51.354;6.740;2024-01-11T06:52:41;53.20;;;27.07;;
8480;SDS011;4277;51.354;6.740;2024-01-11T06:55:08;56.27;;;26.63;;
8480;SDS011;4277;51.354;6.740;2024-01-11T06:57:34;51.33;;;25.23;;
8480;SDS011;4277;51.354;6.740;2024-01-11T07:00:00;49.53;;;24.83;;
8480;SDS011;4277;51.354;6.740;2024-01-11T07:02:27;50.77;;;24.57;;
8480;SDS011;4277;51.354;6.740;2024-01-11T07:04:53;45.27;;;23.07;;
8480;SDS011;4277;51.354;6.740;2024-01-11T07:07:19;46.40;;;24.37;;
8480;SDS011;4277;51.354;6.740;2024-01-11T07:09:45;47.80;;;25.27;;
8480;SDS011;4277;51.354;6.740;2024-01-11T07:12:11;52.47;;;25.50;;
8480;SDS011;4277;51.354;6.740;2024-01-11T07:14:37;48.03;;;24.77;;
8480;SDS011;4277;51.354;6.740;2024-01-11T07:17:03;52.43;;;26.13;;
8480;SDS011;4277;51.354;6.740;2024-01-11T07:19:29;49.00;;;25.30;;
8480;SDS011;4277;51.354;6.740;2024-01-11T07:21:55;50.03;;;25.90;;
8480;SDS011;4277;51.354;6.740;2024-01-11T07:24:21;51.10;;;25.33;;
8480;SDS011;4277;51.354;6.740;2024-01-11T07:26:47;45.83;;;24.97;;
8480;SDS011;4277;51.354;6.740;2024-01-11T07:29:13;46.27;;;23.67;;
8480;SDS011;4277;51.354;6.740;2024-01-11T07:31:39;50.10;;;25.37;;
8480;SDS011;4277;51.354;6.740;2024-01-11T07:34:05;50.70;;;25.80;;
8480;SDS011;4277;51.354;6.740;2024-01-11T07:36:31;48.30;;;24.80;;
8480;SDS011;4277;51.354;6.740;2024-01-11T07:38:57;48.97;;;25.67;;
8480;SDS011;4277;51.354;6.740;2024-01-11T07:41:24;46.97;;;25.83;;
8480;SDS011;4277;51.354;6.740;2024-01-11T07:43:50;47.53;;;25.50;;
8480;SDS011;4277;51.354;6.740;2024-01-11T07:46:16;45.97;;;25.03;;
8480;SDS011;4277;51.354;6.740;2024-01-11T07:48:42;45.27;;;24.83;;
8480;SDS011;4277;51.354;6.740;2024-01-11T07:51:08;49.07;;;25.03;;
8480;SDS011;4277;51.354;6.740;2024-01-11T07:53:34;51.37;;;25.33;;
8480;SDS011;4277;51.354;6.740;2024-01-11T07:56:00;47.20;;;25.67;;
8480;SDS011;4277;51.354;6.740;2024-01-11T07:58:26;47.37;;;25.57;;
8480;SDS011;4277;51.354;6.740;2024-01-11T08:00:52;48.03;;;24.87;;
8480;SDS011;4277;51.354;6.740;2024-01-11T08:03:19;49.30;;;25.17;;
8480;SDS011;4277;51.354;6.740;2024-01-11T08:05:45;47.27;;;24.30;;
8480;SDS011;4277;51.354;6.740;2024-01-11T08:08:11;53.27;;;26.47;;
8480;SDS011;4277;51.354;6.740;2024-01-11T08:10:37;49.03;;;25.97;;
8480;SDS011;4277;51.354;6.740;2024-01-11T08:13:03;48.23;;;25.00;;
8480;SDS011;4277;51.354;6.740;2024-01-11T08:15:29;48.30;;;26.17;;
8480;SDS011;4277;51.354;6.740;2024-01-11T08:17:55;50.73;;;25.23;;
8480;SDS011;4277;51.354;6.740;2024-01-11T08:20:22;47.33;;;25.07;;
8480;SDS011;4277;51.354;6.740;2024-01-11T08:22:48;46.83;;;23.30;;
8480;SDS011;4277;51.354;6.740;2024-01-11T08:25:14;44.80;;;23.00;;
8480;SDS011;4277;51.354;6.740;2024-01-11T08:27:40;49.50;;;25.83;;
8480;SDS011;4277;51.354;6.740;2024-01-11T08:30:06;50.50;;;25.80;;
8480;SDS011;4277;51.354;6.740;2024-01-11T08:32:33;44.63;;;24.63;;
8480;SDS011;4277;51.354;6.740;2024-01-11T08:35:04;52.77;;;26.13;;
8480;SDS011;4277;51.354;6.740;2024-01-11T08:37:31;49.83;;;25.97;;
8480;SDS011;4277;51.354;6.740;2024-01-11T08:39:57;50.73;;;27.13;;
8480;SDS011;4277;51.354;6.740;2024-01-11T08:42:24;49.33;;;25.97;;
8480;SDS011;4277;51.354;6.740;2024-01-11T08:44:50;50.73;;;27.23;;
8480;SDS011;4277;51.354;6.740;2024-01-11T08:47:16;48.77;;;27.70;;
8480;SDS011;4277;51.354;6.740;2024-01-11T08:49:43;48.47;;;25.50;;
8480;SDS011;4277;51.354;6.740;2024-01-11T08:52:09;54.50;;;27.97;;
8480;SDS011;4277;51.354;6.740;2024-01-11T08:54:35;53.17;;;28.37;;
8480;SDS011;4277;51.354;6.740;2024-01-11T08:57:01;50.97;;;26.17;;
8480;SDS011;4277;51.354;6.740;2024-01-11T08:59:28;49.23;;;27.47;;
8480;SDS011;4277;51.354;6.740;2024-01-11T09:01:54;47.80;;;26.30;;
8480;SDS011;4277;51.354;6.740;2024-01-11T09:04:20;49.13;;;26.67;;
8480;SDS011;4277;51.354;6.740;2024-01-11T09:06:46;50.13;;;26.33;;
8480;SDS011;4277;51.354;6.740;2024-01-11T09:09:12;46.77;;;24.97;;
8480;SDS011;4277;51.354;6.740;2024-01-11T09:11:41;52.77;;;29.13;;
8480;SDS011;4277;51.354;6.740;2024-01-11T09:14:07;59.57;;;26.60;;
8480;SDS011;4277;51.354;6.740;2024-01-11T09:16:36;51.13;;;27.47;;
8480;SDS011;4277;51.354;6.740;2024-01-11T09:19:02;49.77;;;26.97;;
8480;SDS011;4277;51.354;6.740;2024-01-11T09:21:28;52.27;;;27.40;;
8480;SDS011;4277;51.354;6.740;2024-01-11T09:23:54;51.97;;;27.57;;
8480;SDS011;4277;51.354;6.740;2024-01-11T09:26:21;52.67;;;28.33;;
8480;SDS011;4277;51.354;6.740;2024-01-11T09:28:47;51.17;;;27.57;;
8480;SDS011;4277;51.354;6.740;2024-01-11T09:31:14;52.00;;;28.83;;
8480;SDS011;4277;51.354;6.740;2024-01-11T09:33:40;51.47;;;28.73;;
8480;SDS011;4277;51.354;6.740;2024-01-11T09:36:10;50.93;;;28.00;;
8480;SDS011;4277;51.354;6.740;2024-01-11T09:38:36;53.70;;;28.53;;
8480;SDS011;4277;51.354;6.740;2024-01-11T09:41:06;53.83;;;28.97;;
8480;SDS011;4277;51.354;6.740;2024-01-11T09:43:34;51.43;;;27.10;;
8480;SDS011;4277;51.354;6.740;2024-01-11T09:46:03;49.33;;;28.10;;
8480;SDS011;4277;51.354;6.740;2024-01-11T09:48:34;51.50;;;28.93;;
8480;SDS011;4277;51.354;6.740;2024-01-11T09:51:03;52.00;;;28.43;;
8480;SDS011;4277;51.354;6.740;2024-01-11T09:53:33;53.97;;;29.87;;
8480;SDS011;4277;51.354;6.740;2024-01-11T09:56:01;51.23;;;28.80;;
8480;SDS011;4277;51.354;6.740;2024-01-11T09:58:27;54.60;;;27.40;;
8480;SDS011;4277;51.354;6.740;2024-01-11T10:00:55;47.73;;;27.37;;
8480;SDS011;4277;51.354;6.740;2024-01-11T10:03:24;47.27;;;26.80;;
8480;SDS011;4277;51.354;6.740;2024-01-11T10:05:51;52.33;;;28.43;;
8480;SDS011;4277;51.354;6.740;2024-01-11T10:08:21;49.83;;;28.37;;
8480;SDS011;4277;51.354;6.740;2024-01-11T10:10:47;51.40;;;28.10;;
8480;SDS011;4277;51.354;6.740;2024-01-11T10:13:14;45.90;;;26.20;;
8480;SDS011;4277;51.354;6.740;2024-01-11T10:15:41;51.07;;;27.17;;
8480;SDS011;4277;51.354;6.740;2024-01-11T10:18:08;51.13;;;28.33;;
8480;SDS011;4277;51.354;6.740;2024-01-11T10:20:34;49.77;;;27.53;;
8480;SDS011;4277;51.354;6.740;2024-01-11T10:23:00;44.70;;;25.93;;
8480;SDS011;4277;51.354;6.740;2024-01-11T10:25:26;51.20;;;28.20;;
8480;SDS011;4277;51.354;6.740;2024-01-11T10:27:52;52.47;;;28.93;;
8480;SDS011;4277;51.354;6.740;2024-01-11T10:30:18;46.70;;;26.50;;
8480;SDS011;4277;51.354;6.740;2024-01-11T10:32:46;46.87;;;25.73;;
8480;SDS011;4277;51.354;6.740;2024-01-11T10:35:12;52.93;;;29.27;;
8480;SDS011;4277;51.354;6.740;2024-01-11T10:37:38;53.27;;;26.63;;
8480;SDS011;4277;51.354;6.740;2024-01-11T10:40:06;44.57;;;25.90;;
8480;SDS011;4277;51.354;6.740;2024-01-11T10:42:41;49.20;;;27.73;;
8480;SDS011;4277;51.354;6.740;2024-01-11T10:45:10;54.23;;;28.83;;
8480;SDS011;4277;51.354;6.740;2024-01-11T10:47:37;49.27;;;28.07;;
8480;SDS011;4277;51.354;6.740;2024-01-11T10:50:03;56.27;;;28.23;;
8480;SDS011;4277;51.354;6.740;2024-01-11T10:52:32;47.13;;;26.93;;
8480;SDS011;4277;51.354;6.740;2024-01-11T10:55:02;48.30;;;27.70;;
8480;SDS011;4277;51.354;6.740;2024-01-11T10:57:29;47.27;;;27.03;;
8480;SDS011;4277;51.354;6.740;2024-01-11T10:59:55;45.10;;;25.90;;
8480;SDS011;4277;51.354;6.740;2024-01-11T11:02:22;43.87;;;25.67;;
8480;SDS011;4277;51.354;6.740;2024-01-11T11:04:48;51.33;;;27.43;;
8480;SDS011;4277;51.354;6.740;2024-01-11T11:07:17;46.97;;;27.27;;
8480;SDS011;4277;51.354;6.740;2024-01-11T11:09:44;51.37;;;27.00;;
8480;SDS011;4277;51.354;6.740;2024-01-11T11:12:10;46.57;;;26.60;;
8480;SDS011;4277;51.354;6.740;2024-01-11T11:14:36;47.47;;;26.53;;
8480;SDS011;4277;51.354;6.740;2024-01-11T11:17:04;42.67;;;25.90;;
8480;SDS011;4277;51.354;6.740;2024-01-11T11:19:31;42.43;;;26.27;;
8480;SDS011;4277;51.354;6.740;2024-01-11T11:21:57;44.23;;;25.07;;
8480;SDS011;4277;51.354;6.740;2024-01-11T11:24:23;44.33;;;26.37;;
8480;SDS011;4277;51.354;6.740;2024-01-11T11:26:49;42.97;;;25.00;;
8480;SDS011;4277;51.354;6.740;2024-01-11T11:29:15;42.40;;;25.17;;
8480;SDS011;4277;51.354;6.740;2024-01-11T11:31:45;46.03;;;26.83;;
8480;SDS011;4277;51.354;6.740;2024-01-11T11:34:40;45.10;;;25.70;;
8480;SDS011;4277;51.354;6.740;2024-01-11T11:37:04;44.77;;;24.87;;
8480;SDS011;4277;51.354;6.740;2024-01-11T11:39:31;47.33;;;24.47;;
8480;SDS011;4277;51.354;6.740;2024-01-11T11:41:58;40.00;;;23.67;;
8480;SDS011;4277;51.354;6.740;2024-01-11T11:44:26;39.57;;;23.90;;
8480;SDS011;4277;51.354;6.740;2024-01-11T11:46:52;46.20;;;25.17;;
8480;SDS011;4277;51.354;6.740;2024-01-11T11:49:18;43.67;;;24.80;;
8480;SDS011;4277;51.354;6.740;2024-01-11T11:51:44;46.00;;;23.27;;
8480;SDS011;4277;51.354;6.740;2024-01-11T11:54:10;41.50;;;22.63;;
8480;SDS011;4277;51.354;6.740;2024-01-11T11:56:39;41.17;;;23.33;;
8480;SDS011;4277;51.354;6.740;2024-01-11T11:59:05;45.03;;;23.63;;
8480;SDS011;4277;51.354;6.740;2024-01-11T12:01:32;42.83;;;24.00;;
8480;SDS011;4277;51.354;6.740;2024-01-11T12:04:01;39.90;;;23.97;;
8480;SDS011;4277;51.354;6.740;2024-01-11T12:06:27;37.43;;;22.63;;
8480;SDS011;4277;51.354;6.740;2024-01-11T12:08:54;39.80;;;23.30;;
8480;SDS011;4277;51.354;6.740;2024-01-11T12:11:20;42.17;;;22.80;;
8480;SDS011;4277;51.354;6.740;2024-01-11T12:13:48;41.90;;;22.47;;
8480;SDS011;4277;51.354;6.740;2024-01-11T12:16:14;38.67;;;22.93;;
8480;SDS011;4277;51.354;6.740;2024-01-11T12:18:40;39.00;;;21.57;;
8480;SDS011;4277;51.354;6.740;2024-01-11T12:21:07;37.07;;;22.07;;
8480;SDS011;4277;51.354;6.740;2024-01-11T12:23:34;39.37;;;21.83;;
8480;SDS011;4277;51.354;6.740;2024-01-11T12:26:03;35.87;;;21.60;;
8480;SDS011;4277;51.354;6.740;2024-01-11T12:28:32;34.30;;;20.30;;
8480;SDS011;4277;51.354;6.740;2024-01-11T12:30:59;33.50;;;19.97;;
8480;SDS011;4277;51.354;6.740;2024-01-11T12:33:25;34.93;;;20.27;;
8480;SDS011;4277;51.354;6.740;2024-01-11T12:35:52;37.20;;;19.77;;
8480;SDS011;4277;51.354;6.740;2024-01-11T12:38:18;38.07;;;20.90;;
8480;SDS011;4277;51.354;6.740;2024-01-11T12:40:45;33.20;;;19.63;;
8480;SDS011;4277;51.354;6.740;2024-01-11T12:43:11;35.03;;;21.40;;
8480;SDS011;4277;51.354;6.740;2024-01-11T12:45:38;38.30;;;21.07;;
8480;SDS011;4277;51.354;6.740;2024-01-11T12:48:08;38.47;;;22.37;;
8480;SDS011;4277;51.354;6.740;2024-01-11T12:50:34;38.23;;;21.20;;
8480;SDS011;4277;51.354;6.740;2024-01-11T12:53:07;39.90;;;21.80;;
8480;SDS011;4277;51.354;6.740;2024-01-11T12:55:33;41.47;;;21.37;;
8480;SDS011;4277;51.354;6.740;2024-01-11T12:58:06;33.43;;;19.73;;
8480;SDS011;4277;51.354;6.740;2024-01-11T13:00:34;49.87;;;21.30;;
8480;SDS011;4277;51.354;6.740;2024-01-11T13:03:00;39.70;;;20.77;;
8480;SDS011;4277;51.354;6.740;2024-01-11T13:05:26;34.30;;;20.77;;
8480;SDS011;4277;51.354;6.740;2024-01-11T13:07:52;37.00;;;20.53;;
8480;SDS011;4277;51.354;6.740;2024-01-11T13:10:18;36.10;;;19.77;;
8480;SDS011;4277;51.354;6.740;2024-01-11T13:12:44;35.90;;;19.80;;
8480;SDS011;4277;51.354;6.740;2024-01-11T13:15:11;33.97;;;20.37;;
8480;SDS011;4277;51.354;6.740;2024-01-11T13:17:38;31.43;;;19.23;;
8480;SDS011;4277;51.354;6.740;2024-01-11T13:20:04;35.20;;;20.00;;
8480;SDS011;4277;51.354;6.740;2024-01-11T13:22:30;37.37;;;20.33;;
8480;SDS011;4277;51.354;6.740;2024-01-11T13:24:56;33.00;;;20.00;;
8480;SDS011;4277;51.354;6.740;2024-01-11T13:27:22;38.33;;;19.47;;
8480;SDS011;4277;51.354;6.740;2024-01-11T13:29:48;35.80;;;19.57;;
8480;SDS011;4277;51.354;6.740;2024-01-11T13:32:14;35.30;;;19.07;;
8480;SDS011;4277;51.354;6.740;2024-01-11T13:34:40;32.63;;;18.10;;
8480;SDS011;4277;51.354;6.740;2024-01-11T13:37:07;31.20;;;18.50;;
8480;SDS011;4277;51.354;6.740;2024-01-11T13:39:33;39.13;;;18.97;;
8480;SDS011;4277;51.354;6.740;2024-01-11T13:41:59;35.43;;;17.57;;
8480;SDS011;4277;51.354;6.740;2024-01-11T13:44:29;29.13;;;17.50;;
8480;SDS011;4277;51.354;6.740;2024-01-11T13:46:55;29.10;;;18.17;;
8480;SDS011;4277;51.354;6.740;2024-01-11T13:49:22;32.97;;;17.87;;
8480;SDS011;4277;51.354;6.740;2024-01-11T13:51:49;30.77;;;17.93;;
8480;SDS011;4277;51.354;6.740;2024-01-11T13:54:15;31.47;;;17.20;;
8480;SDS011;4277;51.354;6.740;2024-01-11T13:56:42;29.40;;;16.70;;
8480;SDS011;4277;51.354;6.740;2024-01-11T13:59:08;27.53;;;16.40;;
8480;SDS011;4277;51.354;6.740;2024-01-11T14:01:34;25.77;;;14.60;;
8480;SDS011;4277;51.354;6.740;2024-01-11T14:04:00;27.23;;;15.47;;
8480;SDS011;4277;51.354;6.740;2024-01-11T14:06:26;27.03;;;15.13;;
8480;SDS011;4277;51.354;6.740;2024-01-11T14:08:52;25.70;;;14.87;;
8480;SDS011;4277;51.354;6.740;2024-01-11T14:11:18;27.27;;;15.43;;
8480;SDS011;4277;51.354;6.740;2024-01-11T14:13:44;24.67;;;16.03;;
8480;SDS011;4277;51.354;6.740;2024-01-11T14:16:10;26.87;;;14.33;;
8480;SDS011;4277;51.354;6.740;2024-01-11T14:18:38;24.57;;;14.53;;
8480;SDS011;4277;51.354;6.740;2024-01-11T14:21:04;26.50;;;14.20;;
8480;SDS011;4277;51.354;6.740;2024-01-11T14:23:30;25.53;;;14.13;;
8480;SDS011;4277;51.354;6.740;2024-01-11T14:25:56;22.93;;;13.00;;
8480;SDS011;4277;51.354;6.740;2024-01-11T14:28:23;25.73;;;13.67;;
8480;SDS011;4277;51.354;6.740;2024-01-11T14:30:49;24.80;;;14.70;;
8480;SDS011;4277;51.354;6.740;2024-01-11T14:33:15;27.03;;;14.63;;
8480;SDS011;4277;51.354;6.740;2024-01-11T14:35:41;25.93;;;14.83;;
8480;SDS011;4277;51.354;6.740;2024-01-11T14:38:08;30.63;;;15.37;;
8480;SDS011;4277;51.354;6.740;2024-01-11T14:40:34;30.17;;;15.80;;
8480;SDS011;4277;51.354;6.740;2024-01-11T14:43:00;25.10;;;15.77;;